createdAt,value
2018-05-04T00:02:03.120Z,0
2018-05-04T00:07:03.187Z,0
2018-05-04T00:12:03.272Z,0
2018-05-04T00:17:03.020Z,0
2018-05-04T00:22:03.161Z,0
2018-05-04T00:27:03.080Z,0
2018-05-04T00:32:03.270Z,0
2018-05-04T00:37:03.178Z,0
2018-05-04T00:42:03.090Z,0
2018-05-04T00:47:03.085Z,0
2018-05-04T00:52:03.004Z,0
2018-05-04T00:57:03.212Z,0
2018-05-04T01:02:03.087Z,0
2018-05-04T01:07:02.988Z,0
2018-05-04T01:12:03.034Z,0
2018-05-04T01:17:02.965Z,0
2018-05-04T01:22:03.133Z,0
2018-05-04T01:27:03.063Z,0
2018-05-04T01:32:03.177Z,0
2018-05-04T01:37:02.945Z,0
2018-05-04T01:42:02.948Z,0
2018-05-04T01:47:02.777Z,0
2018-05-04T01:52:03.089Z,0
2018-05-04T01:57:02.779Z,0
2018-05-04T02:02:03.056Z,0
2018-05-04T02:07:02.846Z,0
2018-05-04T02:12:03.018Z,0
2018-05-04T02:17:02.927Z,0
2018-05-04T02:22:03.197Z,0
2018-05-04T02:27:02.992Z,0
2018-05-04T02:32:02.798Z,0
2018-05-04T02:37:02.991Z,0
2018-05-04T02:42:02.800Z,0
2018-05-04T02:47:02.982Z,0
2018-05-04T02:52:02.910Z,0
2018-05-04T02:57:02.852Z,0
2018-05-04T03:02:03.005Z,0
2018-05-04T03:07:02.951Z,0
2018-05-04T03:12:02.697Z,0
2018-05-04T03:17:02.769Z,0
2018-05-04T03:22:02.834Z,0
2018-05-04T03:27:02.742Z,0
2018-05-04T03:32:02.793Z,0
2018-05-04T03:37:02.857Z,0
2018-05-04T03:42:02.780Z,0
2018-05-04T03:47:02.760Z,0
2018-05-04T03:52:02.691Z,0
2018-05-04T03:57:02.986Z,0.8
2018-05-04T04:02:02.987Z,1.7
2018-05-04T04:07:03.013Z,2.5
2018-05-04T04:12:02.580Z,5
2018-05-04T04:17:02.859Z,7.5
2018-05-04T04:22:02.881Z,10
2018-05-04T04:27:02.889Z,12.5
2018-05-04T04:32:02.719Z,15.8
2018-05-04T04:37:02.692Z,18.3
2018-05-04T04:42:02.823Z,20.8
2018-05-04T04:47:02.693Z,23.3
2018-05-04T04:52:02.850Z,25.8
2018-05-04T04:57:02.730Z,28.3
2018-05-04T05:02:02.716Z,31.7
2018-05-04T05:07:02.637Z,35
2018-05-04T05:12:02.585Z,37.5
2018-05-04T05:17:02.679Z,40
2018-05-04T05:22:02.731Z,43.3
2018-05-04T05:27:02.450Z,47.5
2018-05-04T05:32:02.686Z,51.7
2018-05-04T05:37:02.513Z,55.8
2018-05-04T05:42:02.857Z,60.8
2018-05-04T05:47:02.746Z,66.7
2018-05-04T05:52:02.769Z,70.8
2018-05-04T05:57:02.523Z,75
2018-05-04T06:02:02.596Z,80
2018-05-04T06:07:02.537Z,85.8
2018-05-04T06:12:02.567Z,95.8
2018-05-04T06:17:02.668Z,103.3
2018-05-04T06:22:02.500Z,113.3
2018-05-04T06:27:02.493Z,125.8
2018-05-04T06:32:02.339Z,135
2018-05-04T06:37:02.580Z,141.7
2018-05-04T06:42:02.436Z,147.5
2018-05-04T06:47:02.537Z,155.8
2018-05-04T06:52:02.698Z,162.5
2018-05-04T06:57:02.597Z,173.3
2018-05-04T07:02:02.590Z,180
2018-05-04T07:07:02.295Z,210
2018-05-04T07:12:02.402Z,223.3
2018-05-04T07:17:02.346Z,225
2018-05-04T07:22:02.539Z,227.5
2018-05-04T07:27:02.619Z,227.5
2018-05-04T07:32:02.623Z,228.3
2018-05-04T07:37:02.440Z,228.3
2018-05-04T07:42:02.494Z,226.7
2018-05-04T07:47:02.522Z,224.2
2018-05-04T07:52:02.376Z,223.3
2018-05-04T07:57:02.295Z,222.5
2018-05-04T08:02:02.328Z,221.7
2018-05-04T08:07:02.455Z,220
2018-05-04T08:12:02.229Z,220.8
2018-05-04T08:17:02.432Z,221.7
2018-05-04T08:22:02.240Z,225.8
2018-05-04T08:27:02.303Z,225.8
2018-05-04T08:32:02.389Z,229.2
2018-05-04T08:37:02.173Z,233.3
2018-05-04T08:42:02.276Z,239.2
2018-05-04T08:47:02.143Z,245.8
2018-05-04T08:52:02.425Z,253.3
2018-05-04T08:57:02.443Z,259.2
2018-05-04T09:02:02.149Z,268.3
2018-05-04T09:07:02.145Z,276.7
2018-05-04T09:12:02.407Z,287.5
2018-05-04T09:17:02.148Z,300
2018-05-04T09:22:02.098Z,316.7
2018-05-04T09:27:02.132Z,333.3
2018-05-04T09:32:02.314Z,354.2
2018-05-04T09:37:03.232Z,376.7
2018-05-04T09:42:02.451Z,400
2018-05-04T09:47:02.349Z,424.2
2018-05-04T09:52:02.145Z,450
2018-05-04T09:57:02.320Z,475
2018-05-04T10:02:02.431Z,499.2
2018-05-04T10:07:02.243Z,527.5
2018-05-04T10:12:02.181Z,555
2018-05-04T10:17:02.090Z,579.2
2018-05-04T10:22:02.102Z,615
2018-05-04T10:27:02.201Z,649.2
2018-05-04T10:32:02.068Z,678.3
2018-05-04T10:37:02.144Z,712.5
2018-05-04T10:42:02.198Z,752.5
2018-05-04T10:47:02.074Z,783.3
2018-05-04T10:52:02.200Z,814.2
2018-05-04T10:57:02.113Z,839.2
2018-05-04T11:02:02.093Z,875.8
2018-05-04T11:07:02.121Z,895
2018-05-04T11:12:02.389Z,909.2
2018-05-04T11:17:02.058Z,921.7
2018-05-04T11:22:02.023Z,960.8
2018-05-04T11:27:02.260Z,976.7
2018-05-04T11:32:02.145Z,1006.7
2018-05-04T11:37:01.914Z,1042.5
2018-05-04T11:42:02.244Z,1076.7
2018-05-04T11:47:01.958Z,1114.2
2018-05-04T11:52:02.165Z,1183.3
2018-05-04T11:57:02.133Z,1233.3
2018-05-04T12:02:02.036Z,1280
2018-05-04T12:07:02.145Z,1322.5
2018-05-04T12:12:02.137Z,1367.5
2018-05-04T12:17:01.994Z,1390.8
2018-05-04T12:22:01.860Z,1419.2
2018-05-04T12:27:02.189Z,1444.2
2018-05-04T12:32:02.143Z,1470.8
2018-05-04T12:37:02.050Z,1496.7
2018-05-04T12:42:01.853Z,1524.2
2018-05-04T12:47:02.160Z,1555.8
2018-05-04T12:52:01.987Z,1604.2
2018-05-04T12:57:02.153Z,1662.5
2018-05-04T13:02:01.749Z,1710
2018-05-04T13:07:01.839Z,1767.5
2018-05-04T13:12:02.100Z,1802.5
2018-05-04T13:17:01.949Z,1855.8
2018-05-04T13:22:02.143Z,1875.8
2018-05-04T13:27:01.759Z,1896.7
2018-05-04T13:32:01.799Z,1914.2
2018-05-04T13:37:01.848Z,1923.3
2018-05-04T13:42:01.965Z,1945.8
2018-05-04T13:47:01.913Z,1958.3
2018-05-04T13:52:02.048Z,1964.2
2018-05-04T13:57:02.050Z,1890.8
2018-05-04T14:02:01.860Z,1914.2
2018-05-04T14:07:01.820Z,1909.2
2018-05-04T14:12:01.727Z,1915.8
2018-05-04T14:17:01.876Z,1910
2018-05-04T14:22:01.967Z,1900
2018-05-04T14:27:01.789Z,1857.5
2018-05-04T14:32:01.685Z,1952.5
2018-05-04T14:37:01.707Z,1939.2
2018-05-04T14:42:01.964Z,1929.2
2018-05-04T14:47:01.831Z,1925
2018-05-04T14:52:01.906Z,1949.2
2018-05-04T14:57:01.712Z,1927.5
2018-05-04T15:02:01.656Z,1925
2018-05-04T15:07:01.981Z,1925.8
2018-05-04T15:12:01.703Z,1930
2018-05-04T15:17:01.831Z,1935.8
2018-05-04T15:22:01.711Z,1936.7
2018-05-04T15:27:01.904Z,1953.3
2018-05-04T15:32:01.957Z,1898.3
2018-05-04T15:37:01.684Z,1847.5
2018-05-04T15:42:01.697Z,1783.3
2018-05-04T15:47:01.898Z,1706.7
2018-05-04T15:52:01.685Z,1670.8
2018-05-04T15:57:01.502Z,1611.7
2018-05-04T16:02:01.562Z,1563.3
2018-05-04T16:07:01.661Z,1326.7
2018-05-04T16:12:01.650Z,772.5
2018-05-04T16:17:01.557Z,181.7
2018-05-04T16:22:01.853Z,148.3
2018-05-04T16:27:01.622Z,135
2018-05-04T16:32:01.813Z,123.3
2018-05-04T16:37:01.532Z,112.5
2018-05-04T16:42:01.542Z,104.2
2018-05-04T16:47:01.495Z,94.2
2018-05-04T16:52:01.703Z,88.3
2018-05-04T16:57:01.700Z,81.7
2018-05-04T17:02:01.442Z,75
2018-05-04T17:07:01.732Z,71.7
2018-05-04T17:12:01.788Z,68.3
2018-05-04T17:17:01.766Z,65
2018-05-04T17:22:01.544Z,62.5
2018-05-04T17:27:01.810Z,60
2018-05-04T17:32:01.506Z,57.5
2018-05-04T17:37:01.430Z,55
2018-05-04T17:42:01.754Z,53.3
2018-05-04T17:47:01.463Z,50.8
2018-05-04T17:52:01.528Z,47.5
2018-05-04T17:57:01.353Z,45
2018-05-04T18:02:01.775Z,40.8
2018-05-04T18:07:01.474Z,38.3
2018-05-04T18:12:01.436Z,35
2018-05-04T18:17:01.708Z,32.5
2018-05-04T18:22:01.586Z,30
2018-05-04T18:27:01.618Z,26.7
2018-05-04T18:32:01.301Z,24.2
2018-05-04T18:37:01.581Z,20.8
2018-05-04T18:42:01.445Z,18.3
2018-05-04T18:47:01.340Z,15
2018-05-04T18:52:01.442Z,12.5
2018-05-04T18:57:01.662Z,9.2
2018-05-04T19:02:01.366Z,6.7
2018-05-04T19:07:01.536Z,5
2018-05-04T19:12:01.549Z,3.3
2018-05-04T19:17:01.317Z,1.7
2018-05-04T19:22:01.481Z,0.8
2018-05-04T19:27:01.220Z,0
2018-05-04T19:32:01.343Z,0
2018-05-04T19:37:01.348Z,0
2018-05-04T19:42:01.270Z,0
2018-05-04T19:47:01.301Z,0
2018-05-04T19:52:01.269Z,0
2018-05-04T19:57:01.448Z,0
2018-05-04T20:02:01.180Z,0
2018-05-04T20:07:01.451Z,0
2018-05-04T20:12:01.500Z,0
2018-05-04T20:17:01.305Z,0
2018-05-04T20:22:01.246Z,0
2018-05-04T20:27:01.257Z,0
2018-05-04T20:32:01.231Z,0
2018-05-04T20:37:01.315Z,0
2018-05-04T20:42:01.276Z,0
2018-05-04T20:47:01.273Z,0
2018-05-04T20:52:01.288Z,0
2018-05-04T20:57:01.180Z,0
2018-05-04T21:02:01.075Z,0
2018-05-04T21:07:01.367Z,0
2018-05-04T21:12:01.067Z,0
2018-05-04T21:17:01.286Z,0
2018-05-04T21:22:01.241Z,0
2018-05-04T21:27:01.237Z,0
2018-05-04T21:32:01.286Z,0
2018-05-04T21:37:01.159Z,0
2018-05-04T21:42:01.040Z,0
2018-05-04T21:47:01.195Z,0
2018-05-04T21:52:01.283Z,0
2018-05-04T21:57:01.404Z,0
2018-05-04T22:02:01.004Z,0
2018-05-04T22:07:01.320Z,0
2018-05-04T22:12:01.241Z,0
2018-05-04T22:17:01.236Z,0
2018-05-04T22:22:01.059Z,0
2018-05-04T22:27:01.318Z,0
2018-05-04T22:32:00.951Z,0
2018-05-04T22:37:01.117Z,0
2018-05-04T22:42:00.947Z,0
2018-05-04T22:47:01.151Z,0
2018-05-04T22:52:01.058Z,0
2018-05-04T22:57:01.288Z,0
2018-05-04T23:02:00.876Z,0
2018-05-04T23:07:00.881Z,0
2018-05-04T23:12:01.060Z,0
2018-05-04T23:17:01.196Z,0
2018-05-04T23:22:01.195Z,0
2018-05-04T23:27:01.010Z,0
2018-05-04T23:32:00.905Z,0
2018-05-04T23:37:01.154Z,0
2018-05-04T23:42:00.964Z,0
2018-05-04T23:47:01.011Z,0
2018-05-04T23:52:01.122Z,0
2018-05-04T23:57:01.151Z,0
